sensor_id;sensor_type;location;lat;lon;timestamp;temperature;humidity
74513;DHT22;62992;52.052;8.550;2023-12-20T00:02:02;6.70;99.90
74513;DHT22;62992;52.052;8.550;2023-12-20T00:04:46;6.60;99.90
74513;DHT22;62992;52.052;8.550;2023-12-20T00:07:30;6.50;99.90
74513;DHT22;62992;52.052;8.550;2023-12-20T00:10:14;6.50;99.90
74513;DHT22;62992;52.052;8.550;2023-12-20T00:12:59;6.50;99.90
74513;DHT22;62992;52.052;8.550;2023-12-20T00:15:43;6.50;99.90
74513;DHT22;62992;52.052;8.550;2023-12-20T00:18:27;6.40;99.90
74513;DHT22;62992;52.052;8.550;2023-12-20T00:21:11;6.40;99.90
74513;DHT22;62992;52.052;8.550;2023-12-20T00:23:55;6.40;99.90
74513;DHT22;62992;52.052;8.550;2023-12-20T00:26:40;6.30;99.90
74513;DHT22;62992;52.052;8.550;2023-12-20T00:29:24;6.40;99.90
74513;DHT22;62992;52.052;8.550;2023-12-20T00:32:08;6.30;99.90
74513;DHT22;62992;52.052;8.550;2023-12-20T00:34:52;6.30;99.90
74513;DHT22;62992;52.052;8.550;2023-12-20T00:37:36;6.40;99.90
74513;DHT22;62992;52.052;8.550;2023-12-20T00:40:20;6.30;99.90
74513;DHT22;62992;52.052;8.550;2023-12-20T00:43:04;6.30;99.90
74513;DHT22;62992;52.052;8.550;2023-12-20T00:45:49;6.40;99.90
74513;DHT22;62992;52.052;8.550;2023-12-20T00:48:33;6.40;99.90
74513;DHT22;62992;52.052;8.550;2023-12-20T00:51:17;6.40;99.90
74513;DHT22;62992;52.052;8.550;2023-12-20T00:54:01;6.40;99.90
74513;DHT22;62992;52.052;8.550;2023-12-20T00:56:46;6.40;99.90
74513;DHT22;62992;52.052;8.550;2023-12-20T00:59:30;6.40;99.90
74513;DHT22;62992;52.052;8.550;2023-12-20T01:02:14;6.40;99.90
74513;DHT22;62992;52.052;8.550;2023-12-20T01:04:58;6.40;99.90
74513;DHT22;62992;52.052;8.550;2023-12-20T01:07:43;6.40;99.90
74513;DHT22;62992;52.052;8.550;2023-12-20T01:10:26;6.40;99.90
74513;DHT22;62992;52.052;8.550;2023-12-20T01:13:12;6.40;99.90
74513;DHT22;62992;52.052;8.550;2023-12-20T01:15:57;6.40;99.90
74513;DHT22;62992;52.052;8.550;2023-12-20T01:18:41;6.40;99.90
74513;DHT22;62992;52.052;8.550;2023-12-20T01:21:25;6.40;99.90
74513;DHT22;62992;52.052;8.550;2023-12-20T01:24:09;6.40;99.90
74513;DHT22;62992;52.052;8.550;2023-12-20T01:26:54;6.50;99.90
74513;DHT22;62992;52.052;8.550;2023-12-20T01:29:38;6.40;99.90
74513;DHT22;62992;52.052;8.550;2023-12-20T01:32:22;6.40;99.90
74513;DHT22;62992;52.052;8.550;2023-12-20T01:35:06;6.40;99.90
74513;DHT22;62992;52.052;8.550;2023-12-20T01:37:50;6.40;99.90
74513;DHT22;62992;52.052;8.550;2023-12-20T01:40:35;6.30;99.90
74513;DHT22;62992;52.052;8.550;2023-12-20T01:43:19;6.30;99.90
74513;DHT22;62992;52.052;8.550;2023-12-20T01:46:03;6.30;99.90
74513;DHT22;62992;52.052;8.550;2023-12-20T01:48:48;6.20;99.90
74513;DHT22;62992;52.052;8.550;2023-12-20T01:51:33;6.10;99.90
74513;DHT22;62992;52.052;8.550;2023-12-20T01:54:17;6.20;99.90
74513;DHT22;62992;52.052;8.550;2023-12-20T01:57:03;6.10;99.90
74513;DHT22;62992;52.052;8.550;2023-12-20T01:59:47;6.10;99.90
74513;DHT22;62992;52.052;8.550;2023-12-20T02:02:31;6.10;99.90
74513;DHT22;62992;52.052;8.550;2023-12-20T02:05:16;6.00;99.90
74513;DHT22;62992;52.052;8.550;2023-12-20T02:08:00;6.10;99.90
74513;DHT22;62992;52.052;8.550;2023-12-20T02:10:44;6.00;99.90
74513;DHT22;62992;52.052;8.550;2023-12-20T02:13:28;6.00;99.90
74513;DHT22;62992;52.052;8.550;2023-12-20T02:16:12;6.00;99.90
74513;DHT22;62992;52.052;8.550;2023-12-20T02:18:57;6.00;99.90
74513;DHT22;62992;52.052;8.550;2023-12-20T02:21:41;6.10;99.90
74513;DHT22;62992;52.052;8.550;2023-12-20T02:24:25;6.00;99.90
74513;DHT22;62992;52.052;8.550;2023-12-20T02:27:09;6.10;99.90
74513;DHT22;62992;52.052;8.550;2023-12-20T02:29:53;6.10;99.90
74513;DHT22;62992;52.052;8.550;2023-12-20T02:32:37;6.10;99.90
74513;DHT22;62992;52.052;8.550;2023-12-20T02:35:22;6.10;99.90
74513;DHT22;62992;52.052;8.550;2023-12-20T02:38:06;6.10;99.90
74513;DHT22;62992;52.052;8.550;2023-12-20T02:40:50;6.10;99.90
74513;DHT22;62992;52.052;8.550;2023-12-20T02:43:34;6.00;99.90
74513;DHT22;62992;52.052;8.550;2023-12-20T02:46:19;6.10;99.90
74513;DHT22;62992;52.052;8.550;2023-12-20T02:49:03;6.10;99.90
74513;DHT22;62992;52.052;8.550;2023-12-20T02:51:47;6.10;99.90
74513;DHT22;62992;52.052;8.550;2023-12-20T02:54:31;6.10;99.90
74513;DHT22;62992;52.052;8.550;2023-12-20T02:57:16;6.10;99.90
74513;DHT22;62992;52.052;8.550;2023-12-20T03:00:00;6.10;99.90
74513;DHT22;62992;52.052;8.550;2023-12-20T03:02:44;6.10;99.90
74513;DHT22;62992;52.052;8.550;2023-12-20T03:05:28;6.00;99.90
74513;DHT22;62992;52.052;8.550;2023-12-20T03:08:13;6.00;99.90
74513;DHT22;62992;52.052;8.550;2023-12-20T03:10:58;6.00;99.90
74513;DHT22;62992;52.052;8.550;2023-12-20T03:13:42;6.00;99.90
74513;DHT22;62992;52.052;8.550;2023-12-20T03:16:26;6.00;99.90
74513;DHT22;62992;52.052;8.550;2023-12-20T03:19:11;6.00;99.90
74513;DHT22;62992;52.052;8.550;2023-12-20T03:21:55;6.00;99.90
74513;DHT22;62992;52.052;8.550;2023-12-20T03:24:39;6.10;99.90
74513;DHT22;62992;52.052;8.550;2023-12-20T03:27:23;6.10;99.90
74513;DHT22;62992;52.052;8.550;2023-12-20T03:30:07;6.20;99.90
74513;DHT22;62992;52.052;8.550;2023-12-20T03:32:51;6.10;99.90
74513;DHT22;62992;52.052;8.550;2023-12-20T03:35:35;6.10;99.90
74513;DHT22;62992;52.052;8.550;2023-12-20T03:38:20;6.10;99.90
74513;DHT22;62992;52.052;8.550;2023-12-20T03:41:04;6.10;99.90
74513;DHT22;62992;52.052;8.550;2023-12-20T03:43:48;6.00;99.90
74513;DHT22;62992;52.052;8.550;2023-12-20T03:46:33;6.00;99.90
74513;DHT22;62992;52.052;8.550;2023-12-20T03:49:17;6.00;99.90
74513;DHT22;62992;52.052;8.550;2023-12-20T03:52:01;6.00;99.90
74513;DHT22;62992;52.052;8.550;2023-12-20T03:54:45;6.00;99.90
74513;DHT22;62992;52.052;8.550;2023-12-20T03:57:29;6.00;99.90
74513;DHT22;62992;52.052;8.550;2023-12-20T04:00:14;6.00;99.90
74513;DHT22;62992;52.052;8.550;2023-12-20T04:02:58;6.00;99.90
74513;DHT22;62992;52.052;8.550;2023-12-20T04:05:43;6.00;99.90
74513;DHT22;62992;52.052;8.550;2023-12-20T04:08:27;6.00;99.90
74513;DHT22;62992;52.052;8.550;2023-12-20T04:11:11;5.90;99.90
74513;DHT22;62992;52.052;8.550;2023-12-20T04:13:55;6.00;99.90
74513;DHT22;62992;52.052;8.550;2023-12-20T04:16:40;5.90;99.90
74513;DHT22;62992;52.052;8.550;2023-12-20T04:19:24;5.90;99.90
74513;DHT22;62992;52.052;8.550;2023-12-20T04:22:08;5.90;99.90
74513;DHT22;62992;52.052;8.550;2023-12-20T04:24:53;5.90;99.90
74513;DHT22;62992;52.052;8.550;2023-12-20T04:27:37;5.90;99.90
74513;DHT22;62992;52.052;8.550;2023-12-20T04:30:21;5.90;99.90
74513;DHT22;62992;52.052;8.550;2023-12-20T04:33:05;6.00;99.90
74513;DHT22;62992;52.052;8.550;2023-12-20T04:35:50;6.00;99.90
74513;DHT22;62992;52.052;8.550;2023-12-20T04:38:34;5.90;99.90
74513;DHT22;62992;52.052;8.550;2023-12-20T04:41:18;6.00;99.90
74513;DHT22;62992;52.052;8.550;2023-12-20T04:44:02;6.00;99.90
74513;DHT22;62992;52.052;8.550;2023-12-20T04:46:47;6.00;99.90
74513;DHT22;62992;52.052;8.550;2023-12-20T04:49:31;6.00;99.90
74513;DHT22;62992;52.052;8.550;2023-12-20T04:52:15;6.00;99.90
74513;DHT22;62992;52.052;8.550;2023-12-20T04:54:59;5.90;99.90
74513;DHT22;62992;52.052;8.550;2023-12-20T04:57:43;5.90;99.90
74513;DHT22;62992;52.052;8.550;2023-12-20T05:00:27;6.00;99.90
74513;DHT22;62992;52.052;8.550;2023-12-20T05:03:12;5.90;99.90
74513;DHT22;62992;52.052;8.550;2023-12-20T05:05:56;5.90;99.90
74513;DHT22;62992;52.052;8.550;2023-12-20T05:08:41;6.00;99.90
74513;DHT22;62992;52.052;8.550;2023-12-20T05:11:25;6.00;99.90
74513;DHT22;62992;52.052;8.550;2023-12-20T05:14:09;6.00;99.90
74513;DHT22;62992;52.052;8.550;2023-12-20T05:16:53;6.00;99.90
74513;DHT22;62992;52.052;8.550;2023-12-20T05:19:38;6.00;99.90
74513;DHT22;62992;52.052;8.550;2023-12-20T05:22:22;6.00;99.90
74513;DHT22;62992;52.052;8.550;2023-12-20T05:25:06;6.00;99.90
74513;DHT22;62992;52.052;8.550;2023-12-20T05:27:50;6.00;99.90
74513;DHT22;62992;52.052;8.550;2023-12-20T05:30:34;6.00;99.90
74513;DHT22;62992;52.052;8.550;2023-12-20T05:33:18;6.00;99.90
74513;DHT22;62992;52.052;8.550;2023-12-20T05:36:02;6.00;99.90
74513;DHT22;62992;52.052;8.550;2023-12-20T05:38:47;6.00;99.90
74513;DHT22;62992;52.052;8.550;2023-12-20T05:41:31;6.00;99.90
74513;DHT22;62992;52.052;8.550;2023-12-20T05:44:15;6.00;99.90
74513;DHT22;62992;52.052;8.550;2023-12-20T05:46:59;6.00;99.90
74513;DHT22;62992;52.052;8.550;2023-12-20T05:49:44;6.00;99.90
74513;DHT22;62992;52.052;8.550;2023-12-20T05:52:28;6.00;99.90
74513;DHT22;62992;52.052;8.550;2023-12-20T05:55:13;5.90;99.90
74513;DHT22;62992;52.052;8.550;2023-12-20T05:57:57;5.90;99.90
74513;DHT22;62992;52.052;8.550;2023-12-20T06:00:41;5.90;99.90
74513;DHT22;62992;52.052;8.550;2023-12-20T06:03:25;5.90;99.90
74513;DHT22;62992;52.052;8.550;2023-12-20T06:06:09;5.90;99.90
74513;DHT22;62992;52.052;8.550;2023-12-20T06:08:54;5.90;99.90
74513;DHT22;62992;52.052;8.550;2023-12-20T06:11:38;6.00;99.90
74513;DHT22;62992;52.052;8.550;2023-12-20T06:14:22;6.00;99.90
74513;DHT22;62992;52.052;8.550;2023-12-20T06:17:06;5.90;99.90
74513;DHT22;62992;52.052;8.550;2023-12-20T06:19:50;5.90;99.90
74513;DHT22;62992;52.052;8.550;2023-12-20T06:22:35;6.00;99.90
74513;DHT22;62992;52.052;8.550;2023-12-20T06:25:20;6.00;99.90
74513;DHT22;62992;52.052;8.550;2023-12-20T06:28:04;5.90;99.90
74513;DHT22;62992;52.052;8.550;2023-12-20T06:30:48;5.90;99.90
74513;DHT22;62992;52.052;8.550;2023-12-20T06:33:33;6.00;99.90
74513;DHT22;62992;52.052;8.550;2023-12-20T06:36:20;5.90;99.90
74513;DHT22;62992;52.052;8.550;2023-12-20T06:39:04;6.00;99.90
74513;DHT22;62992;52.052;8.550;2023-12-20T06:41:48;6.00;99.90
74513;DHT22;62992;52.052;8.550;2023-12-20T06:44:32;6.00;99.90
74513;DHT22;62992;52.052;8.550;2023-12-20T06:47:17;6.00;99.90
74513;DHT22;62992;52.052;8.550;2023-12-20T06:50:01;6.00;99.90
74513;DHT22;62992;52.052;8.550;2023-12-20T06:52:45;6.00;99.90
74513;DHT22;62992;52.052;8.550;2023-12-20T06:55:29;6.00;99.90
74513;DHT22;62992;52.052;8.550;2023-12-20T06:58:14;6.00;99.90
74513;DHT22;62992;52.052;8.550;2023-12-20T07:00:59;5.90;99.90
74513;DHT22;62992;52.052;8.550;2023-12-20T07:03:43;5.90;99.90
74513;DHT22;62992;52.052;8.550;2023-12-20T07:06:27;6.00;99.90
74513;DHT22;62992;52.052;8.550;2023-12-20T07:09:12;6.00;99.90
74513;DHT22;62992;52.052;8.550;2023-12-20T07:11:57;5.90;99.90
74513;DHT22;62992;52.052;8.550;2023-12-20T07:14:41;6.00;99.90
74513;DHT22;62992;52.052;8.550;2023-12-20T07:17:25;6.00;99.90
74513;DHT22;62992;52.052;8.550;2023-12-20T07:20:10;6.00;99.90
74513;DHT22;62992;52.052;8.550;2023-12-20T07:22:54;6.10;99.90
74513;DHT22;62992;52.052;8.550;2023-12-20T07:25:38;6.10;99.90
74513;DHT22;62992;52.052;8.550;2023-12-20T07:28:23;6.10;99.90
74513;DHT22;62992;52.052;8.550;2023-12-20T07:31:08;6.00;99.90
74513;DHT22;62992;52.052;8.550;2023-12-20T07:33:52;6.00;99.90
74513;DHT22;62992;52.052;8.550;2023-12-20T07:36:36;6.00;99.90
74513;DHT22;62992;52.052;8.550;2023-12-20T07:39:21;6.10;99.90
74513;DHT22;62992;52.052;8.550;2023-12-20T07:42:05;6.00;99.90
74513;DHT22;62992;52.052;8.550;2023-12-20T07:44:49;6.00;99.90
74513;DHT22;62992;52.052;8.550;2023-12-20T07:47:33;6.00;99.90
74513;DHT22;62992;52.052;8.550;2023-12-20T07:50:17;6.00;99.90
74513;DHT22;62992;52.052;8.550;2023-12-20T07:53:02;6.10;99.90
74513;DHT22;62992;52.052;8.550;2023-12-20T07:55:47;6.10;99.90
74513;DHT22;62992;52.052;8.550;2023-12-20T07:58:31;6.10;99.90
74513;DHT22;62992;52.052;8.550;2023-12-20T08:01:15;6.10;99.90
74513;DHT22;62992;52.052;8.550;2023-12-20T08:03:59;6.10;99.90
74513;DHT22;62992;52.052;8.550;2023-12-20T08:06:44;6.10;99.90
74513;DHT22;62992;52.052;8.550;2023-12-20T08:09:28;6.10;99.90
74513;DHT22;62992;52.052;8.550;2023-12-20T08:12:12;6.10;99.90
74513;DHT22;62992;52.052;8.550;2023-12-20T08:14:56;6.10;99.90
74513;DHT22;62992;52.052;8.550;2023-12-20T08:17:41;6.20;99.90
74513;DHT22;62992;52.052;8.550;2023-12-20T08:20:25;6.20;99.90
74513;DHT22;62992;52.052;8.550;2023-12-20T08:23:09;6.40;99.90
74513;DHT22;62992;52.052;8.550;2023-12-20T08:25:53;6.70;99.90
74513;DHT22;62992;52.052;8.550;2023-12-20T08:28:37;6.80;99.90
74513;DHT22;62992;52.052;8.550;2023-12-20T08:31:22;6.60;99.90
74513;DHT22;62992;52.052;8.550;2023-12-20T08:34:06;6.60;99.90
74513;DHT22;62992;52.052;8.550;2023-12-20T08:36:50;6.50;99.90
74513;DHT22;62992;52.052;8.550;2023-12-20T08:39:34;6.50;99.90
74513;DHT22;62992;52.052;8.550;2023-12-20T08:42:19;6.40;99.90
74513;DHT22;62992;52.052;8.550;2023-12-20T08:45:03;6.70;99.90
74513;DHT22;62992;52.052;8.550;2023-12-20T08:47:48;6.60;99.90
74513;DHT22;62992;52.052;8.550;2023-12-20T08:50:32;6.40;99.90
74513;DHT22;62992;52.052;8.550;2023-12-20T08:53:16;6.40;99.90
74513;DHT22;62992;52.052;8.550;2023-12-20T08:56:01;6.30;99.90
74513;DHT22;62992;52.052;8.550;2023-12-20T08:58:46;6.30;99.90
74513;DHT22;62992;52.052;8.550;2023-12-20T09:01:30;6.20;99.90
74513;DHT22;62992;52.052;8.550;2023-12-20T09:04:14;6.30;99.90
74513;DHT22;62992;52.052;8.550;2023-12-20T09:06:59;6.30;99.90
74513;DHT22;62992;52.052;8.550;2023-12-20T09:09:44;6.30;99.90
74513;DHT22;62992;52.052;8.550;2023-12-20T09:12:28;6.30;99.90
74513;DHT22;62992;52.052;8.550;2023-12-20T09:15:12;6.30;99.90
74513;DHT22;62992;52.052;8.550;2023-12-20T09:17:56;6.30;99.90
74513;DHT22;62992;52.052;8.550;2023-12-20T09:20:40;6.30;99.90
74513;DHT22;62992;52.052;8.550;2023-12-20T09:23:25;6.30;99.90
74513;DHT22;62992;52.052;8.550;2023-12-20T09:26:09;6.30;99.90
74513;DHT22;62992;52.052;8.550;2023-12-20T09:28:53;6.30;99.90
74513;DHT22;62992;52.052;8.550;2023-12-20T09:31:37;6.30;99.90
74513;DHT22;62992;52.052;8.550;2023-12-20T09:34:22;6.40;99.90
74513;DHT22;62992;52.052;8.550;2023-12-20T09:37:06;6.40;99.90
74513;DHT22;62992;52.052;8.550;2023-12-20T09:39:51;6.40;99.90
74513;DHT22;62992;52.052;8.550;2023-12-20T09:42:54;6.40;99.90
74513;DHT22;62992;52.052;8.550;2023-12-20T09:45:40;6.40;99.90
74513;DHT22;62992;52.052;8.550;2023-12-20T09:48:24;6.30;99.90
74513;DHT22;62992;52.052;8.550;2023-12-20T09:51:10;6.30;99.90
74513;DHT22;62992;52.052;8.550;2023-12-20T09:53:54;6.30;99.90
74513;DHT22;62992;52.052;8.550;2023-12-20T09:56:39;6.40;99.90
74513;DHT22;62992;52.052;8.550;2023-12-20T09:59:24;6.40;99.90
74513;DHT22;62992;52.052;8.550;2023-12-20T10:02:09;6.40;99.90
74513;DHT22;62992;52.052;8.550;2023-12-20T10:04:54;6.40;99.90
74513;DHT22;62992;52.052;8.550;2023-12-20T10:07:38;6.40;99.90
74513;DHT22;62992;52.052;8.550;2023-12-20T10:10:23;6.40;99.90
74513;DHT22;62992;52.052;8.550;2023-12-20T10:13:07;6.50;99.90
74513;DHT22;62992;52.052;8.550;2023-12-20T10:15:52;6.50;99.90
74513;DHT22;62992;52.052;8.550;2023-12-20T10:18:38;6.60;99.90
74513;DHT22;62992;52.052;8.550;2023-12-20T10:21:22;6.80;99.90
74513;DHT22;62992;52.052;8.550;2023-12-20T10:24:06;6.80;99.90
74513;DHT22;62992;52.052;8.550;2023-12-20T10:27:03;6.90;99.90
74513;DHT22;62992;52.052;8.550;2023-12-20T10:29:48;6.80;99.90
74513;DHT22;62992;52.052;8.550;2023-12-20T10:32:32;6.90;99.90
74513;DHT22;62992;52.052;8.550;2023-12-20T10:35:16;6.80;99.90
74513;DHT22;62992;52.052;8.550;2023-12-20T10:38:02;6.80;99.90
74513;DHT22;62992;52.052;8.550;2023-12-20T10:40:47;6.70;99.90
74513;DHT22;62992;52.052;8.550;2023-12-20T10:43:31;6.60;99.90
74513;DHT22;62992;52.052;8.550;2023-12-20T10:46:16;6.50;99.90
74513;DHT22;62992;52.052;8.550;2023-12-20T10:49:03;6.50;99.90
74513;DHT22;62992;52.052;8.550;2023-12-20T10:51:49;6.60;99.90
74513;DHT22;62992;52.052;8.550;2023-12-20T10:54:35;6.60;99.90
74513;DHT22;62992;52.052;8.550;2023-12-20T10:57:19;6.60;99.90
74513;DHT22;62992;52.052;8.550;2023-12-20T11:00:06;6.60;99.90
74513;DHT22;62992;52.052;8.550;2023-12-20T11:02:53;6.60;99.90
74513;DHT22;62992;52.052;8.550;2023-12-20T11:08:58;6.70;99.90
74513;DHT22;62992;52.052;8.550;2023-12-20T11:11:37;6.70;99.90
74513;DHT22;62992;52.052;8.550;2023-12-20T11:14:23;6.70;99.90
74513;DHT22;62992;52.052;8.550;2023-12-20T11:17:10;6.70;99.90
74513;DHT22;62992;52.052;8.550;2023-12-20T11:22:51;6.70;99.90
74513;DHT22;62992;52.052;8.550;2023-12-20T11:25:49;6.70;99.90
74513;DHT22;62992;52.052;8.550;2023-12-20T11:28:35;6.60;99.90
74513;DHT22;62992;52.052;8.550;2023-12-20T11:31:19;6.70;99.90
74513;DHT22;62992;52.052;8.550;2023-12-20T11:34:13;6.70;99.90
74513;DHT22;62992;52.052;8.550;2023-12-20T11:36:58;6.70;99.90
74513;DHT22;62992;52.052;8.550;2023-12-20T11:39:43;6.70;99.90
74513;DHT22;62992;52.052;8.550;2023-12-20T11:42:27;6.70;99.90
74513;DHT22;62992;52.052;8.550;2023-12-20T11:45:15;6.70;99.90
74513;DHT22;62992;52.052;8.550;2023-12-20T11:48:03;6.70;99.90
74513;DHT22;62992;52.052;8.550;2023-12-20T11:50:47;6.70;99.90
74513;DHT22;62992;52.052;8.550;2023-12-20T11:53:32;6.70;99.90
74513;DHT22;62992;52.052;8.550;2023-12-20T11:56:17;6.70;99.90
74513;DHT22;62992;52.052;8.550;2023-12-20T11:59:01;6.70;99.90
74513;DHT22;62992;52.052;8.550;2023-12-20T12:01:49;6.60;99.90
74513;DHT22;62992;52.052;8.550;2023-12-20T12:04:34;6.70;99.90
74513;DHT22;62992;52.052;8.550;2023-12-20T12:07:18;6.80;99.90
74513;DHT22;62992;52.052;8.550;2023-12-20T12:10:02;6.80;99.90
74513;DHT22;62992;52.052;8.550;2023-12-20T12:12:50;6.80;99.90
74513;DHT22;62992;52.052;8.550;2023-12-20T12:15:34;6.90;99.90
74513;DHT22;62992;52.052;8.550;2023-12-20T12:18:18;6.90;99.90
74513;DHT22;62992;52.052;8.550;2023-12-20T12:21:02;6.80;99.90
74513;DHT22;62992;52.052;8.550;2023-12-20T12:23:46;6.90;99.90
74513;DHT22;62992;52.052;8.550;2023-12-20T12:26:31;7.00;99.90
74513;DHT22;62992;52.052;8.550;2023-12-20T12:29:15;7.00;99.90
74513;DHT22;62992;52.052;8.550;2023-12-20T12:31:59;7.10;99.90
74513;DHT22;62992;52.052;8.550;2023-12-20T12:34:43;7.00;99.90
74513;DHT22;62992;52.052;8.550;2023-12-20T12:37:27;7.00;99.90
74513;DHT22;62992;52.052;8.550;2023-12-20T12:40:12;7.10;99.90
74513;DHT22;62992;52.052;8.550;2023-12-20T12:42:56;7.10;99.90
74513;DHT22;62992;52.052;8.550;2023-12-20T12:45:41;7.10;99.90
74513;DHT22;62992;52.052;8.550;2023-12-20T12:48:25;7.10;99.90
74513;DHT22;62992;52.052;8.550;2023-12-20T12:51:09;7.10;99.90
74513;DHT22;62992;52.052;8.550;2023-12-20T12:53:57;7.10;99.90
74513;DHT22;62992;52.052;8.550;2023-12-20T12:56:41;7.00;99.90
74513;DHT22;62992;52.052;8.550;2023-12-20T12:59:25;6.90;99.90
74513;DHT22;62992;52.052;8.550;2023-12-20T13:02:09;6.90;99.90
74513;DHT22;62992;52.052;8.550;2023-12-20T13:04:54;6.80;99.90
74513;DHT22;62992;52.052;8.550;2023-12-20T13:07:38;6.80;99.90
74513;DHT22;62992;52.052;8.550;2023-12-20T13:10:23;6.70;99.90
74513;DHT22;62992;52.052;8.550;2023-12-20T13:13:07;6.70;99.90
74513;DHT22;62992;52.052;8.550;2023-12-20T13:15:51;6.70;99.90
74513;DHT22;62992;52.052;8.550;2023-12-20T13:18:38;6.50;99.90
74513;DHT22;62992;52.052;8.550;2023-12-20T13:21:26;6.20;99.90
74513;DHT22;62992;52.052;8.550;2023-12-20T13:24:10;6.10;99.90
74513;DHT22;62992;52.052;8.550;2023-12-20T13:26:55;6.00;99.90
74513;DHT22;62992;52.052;8.550;2023-12-20T13:29:38;6.00;99.90
74513;DHT22;62992;52.052;8.550;2023-12-20T13:32:23;5.90;99.90
74513;DHT22;62992;52.052;8.550;2023-12-20T13:35:07;5.90;99.90
74513;DHT22;62992;52.052;8.550;2023-12-20T13:37:51;5.90;99.90
74513;DHT22;62992;52.052;8.550;2023-12-20T13:40:35;5.90;99.90
74513;DHT22;62992;52.052;8.550;2023-12-20T13:43:19;6.00;99.90
74513;DHT22;62992;52.052;8.550;2023-12-20T13:46:05;6.10;99.90
74513;DHT22;62992;52.052;8.550;2023-12-20T13:48:49;6.00;99.90
74513;DHT22;62992;52.052;8.550;2023-12-20T13:51:33;6.10;99.90
74513;DHT22;62992;52.052;8.550;2023-12-20T13:54:17;6.00;99.90
74513;DHT22;62992;52.052;8.550;2023-12-20T13:57:05;6.00;99.90
74513;DHT22;62992;52.052;8.550;2023-12-20T13:59:49;6.00;99.90
74513;DHT22;62992;52.052;8.550;2023-12-20T14:02:34;6.00;99.90
74513;DHT22;62992;52.052;8.550;2023-12-20T14:05:19;6.00;99.90
74513;DHT22;62992;52.052;8.550;2023-12-20T14:08:03;6.10;99.90
74513;DHT22;62992;52.052;8.550;2023-12-20T14:10:47;6.10;99.90
74513;DHT22;62992;52.052;8.550;2023-12-20T14:13:32;6.00;99.90
74513;DHT22;62992;52.052;8.550;2023-12-20T14:16:16;6.10;99.90
74513;DHT22;62992;52.052;8.550;2023-12-20T14:19:00;6.00;99.90
74513;DHT22;62992;52.052;8.550;2023-12-20T14:21:46;6.00;99.90
74513;DHT22;62992;52.052;8.550;2023-12-20T14:24:31;6.00;99.90
74513;DHT22;62992;52.052;8.550;2023-12-20T14:27:15;5.90;99.90
74513;DHT22;62992;52.052;8.550;2023-12-20T14:29:59;5.90;99.90
74513;DHT22;62992;52.052;8.550;2023-12-20T14:32:43;6.00;99.90
74513;DHT22;62992;52.052;8.550;2023-12-20T14:35:27;5.90;99.90
74513;DHT22;62992;52.052;8.550;2023-12-20T14:38:11;5.90;99.90
74513;DHT22;62992;52.052;8.550;2023-12-20T14:40:58;5.90;99.90
74513;DHT22;62992;52.052;8.550;2023-12-20T14:43:42;5.90;99.90
74513;DHT22;62992;52.052;8.550;2023-12-20T14:46:27;6.00;99.90
74513;DHT22;62992;52.052;8.550;2023-12-20T14:49:12;6.00;99.90
74513;DHT22;62992;52.052;8.550;2023-12-20T14:51:58;6.00;99.90
74513;DHT22;62992;52.052;8.550;2023-12-20T14:54:43;5.90;99.90
74513;DHT22;62992;52.052;8.550;2023-12-20T14:57:27;5.90;99.90
74513;DHT22;62992;52.052;8.550;2023-12-20T15:00:11;5.90;99.90
74513;DHT22;62992;52.052;8.550;2023-12-20T15:03:00;5.90;99.90
74513;DHT22;62992;52.052;8.550;2023-12-20T15:05:44;5.90;99.90
74513;DHT22;62992;52.052;8.550;2023-12-20T15:08:28;5.80;99.90
74513;DHT22;62992;52.052;8.550;2023-12-20T15:11:12;5.80;99.90
74513;DHT22;62992;52.052;8.550;2023-12-20T15:13:57;5.90;99.90
74513;DHT22;62992;52.052;8.550;2023-12-20T15:16:43;5.80;99.90
74513;DHT22;62992;52.052;8.550;2023-12-20T15:19:28;5.80;99.90
74513;DHT22;62992;52.052;8.550;2023-12-20T15:22:12;5.80;99.90
74513;DHT22;62992;52.052;8.550;2023-12-20T15:24:56;5.80;99.90
74513;DHT22;62992;52.052;8.550;2023-12-20T15:27:41;5.80;99.90
74513;DHT22;62992;52.052;8.550;2023-12-20T15:30:25;5.80;99.90
74513;DHT22;62992;52.052;8.550;2023-12-20T15:33:09;5.80;99.90
74513;DHT22;62992;52.052;8.550;2023-12-20T15:35:53;5.80;99.90
74513;DHT22;62992;52.052;8.550;2023-12-20T15:38:38;5.90;99.90
74513;DHT22;62992;52.052;8.550;2023-12-20T15:41:22;5.80;99.90
74513;DHT22;62992;52.052;8.550;2023-12-20T15:44:07;6.00;99.90
74513;DHT22;62992;52.052;8.550;2023-12-20T15:46:51;6.00;99.90
74513;DHT22;62992;52.052;8.550;2023-12-20T15:49:36;5.90;99.90
74513;DHT22;62992;52.052;8.550;2023-12-20T15:52:20;5.80;99.90
74513;DHT22;62992;52.052;8.550;2023-12-20T15:55:04;5.90;99.90
74513;DHT22;62992;52.052;8.550;2023-12-20T15:57:48;5.90;99.90
74513;DHT22;62992;52.052;8.550;2023-12-20T16:00:33;5.90;99.90
74513;DHT22;62992;52.052;8.550;2023-12-20T16:03:17;5.90;99.90
74513;DHT22;62992;52.052;8.550;2023-12-20T16:06:01;5.80;99.90
74513;DHT22;62992;52.052;8.550;2023-12-20T16:08:45;5.90;99.90
74513;DHT22;62992;52.052;8.550;2023-12-20T16:11:29;5.90;99.90
74513;DHT22;62992;52.052;8.550;2023-12-20T16:14:13;5.90;99.90
74513;DHT22;62992;52.052;8.550;2023-12-20T16:17:01;5.90;99.90
74513;DHT22;62992;52.052;8.550;2023-12-20T16:19:45;5.90;99.90
74513;DHT22;62992;52.052;8.550;2023-12-20T16:22:30;5.90;99.90
74513;DHT22;62992;52.052;8.550;2023-12-20T16:25:14;5.80;99.90
74513;DHT22;62992;52.052;8.550;2023-12-20T16:27:58;5.80;99.90
74513;DHT22;62992;52.052;8.550;2023-12-20T16:30:42;5.90;99.90
74513;DHT22;62992;52.052;8.550;2023-12-20T16:33:26;5.80;99.90
74513;DHT22;62992;52.052;8.550;2023-12-20T16:36:10;5.90;99.90
74513;DHT22;62992;52.052;8.550;2023-12-20T16:38:54;5.90;99.90
74513;DHT22;62992;52.052;8.550;2023-12-20T16:41:38;6.00;99.90
74513;DHT22;62992;52.052;8.550;2023-12-20T16:44:23;6.00;99.90
74513;DHT22;62992;52.052;8.550;2023-12-20T16:47:07;6.00;99.90
74513;DHT22;62992;52.052;8.550;2023-12-20T16:49:51;6.00;99.90
74513;DHT22;62992;52.052;8.550;2023-12-20T16:52:36;6.20;99.90
74513;DHT22;62992;52.052;8.550;2023-12-20T16:55:20;6.20;99.90
74513;DHT22;62992;52.052;8.550;2023-12-20T16:58:04;6.30;99.90
74513;DHT22;62992;52.052;8.550;2023-12-20T17:00:49;6.40;99.90
74513;DHT22;62992;52.052;8.550;2023-12-20T17:03:35;6.40;99.90
74513;DHT22;62992;52.052;8.550;2023-12-20T17:06:19;6.40;99.90
74513;DHT22;62992;52.052;8.550;2023-12-20T17:09:03;6.40;99.90
74513;DHT22;62992;52.052;8.550;2023-12-20T17:11:47;6.40;99.90
74513;DHT22;62992;52.052;8.550;2023-12-20T17:14:31;6.50;99.90
74513;DHT22;62992;52.052;8.550;2023-12-20T17:17:16;6.40;99.90
74513;DHT22;62992;52.052;8.550;2023-12-20T17:20:01;6.50;99.90
74513;DHT22;62992;52.052;8.550;2023-12-20T17:22:45;6.50;99.90
74513;DHT22;62992;52.052;8.550;2023-12-20T17:25:29;6.50;99.90
74513;DHT22;62992;52.052;8.550;2023-12-20T17:28:14;6.50;99.90
74513;DHT22;62992;52.052;8.550;2023-12-20T17:30:58;6.50;99.90
74513;DHT22;62992;52.052;8.550;2023-12-20T17:33:44;6.50;99.90
74513;DHT22;62992;52.052;8.550;2023-12-20T17:36:28;6.50;99.90
74513;DHT22;62992;52.052;8.550;2023-12-20T17:39:12;6.60;99.90
74513;DHT22;62992;52.052;8.550;2023-12-20T17:41:58;6.60;99.90